首页
METAR-TAF:

METAR-TAF

机场 :

博德鲁姆, 土耳其

纬度: 37-14-53N, 经度: 027-40-55E, 海拔: 6米

当前天气观测

该预报发布于27分钟前的11:50 UTC
风速9节,风向东南
温度 17°C
湿度 72%
气压 1009 hPa
能见度10公里或以上
少量云层高于2000英尺, 积雨云.
散云层高于3000英尺
多云层高于9000英尺

METAR: LTFE 111150Z 13009KT 9999 FEW020CB SCT030 BKN090 17/12 Q1009 NOSIG RMK RWY10 12010KT

时间: 15:17 (12:17 UTC)

预报

该预报发布于1小时和37分钟前的10:40 UTC
预报有效从11日的 12点(UTC)到 12日的 12点(UTC)
风速16节,风向东南
能见度10公里或以上
少量云层高于2000英尺, 积雨云.
多云层高于3000英尺
小阵雨
成为
从 11日的 12点(UTC)到 11日的 14点(UTC)
风速6节,风向
成为
从 11日的 15点(UTC)到 11日的 18点(UTC)
散云层高于3000英尺
多云层高于10000英尺
几率 30% :
短暂存在
从 12日的 00点(UTC)到 12日的 04点(UTC)
少量云层高于2000英尺, 积雨云.
多云层高于3000英尺
雷暴, 小雨

TAF: LTFE 111040Z 1112/1212 14016KT 9999 -SHRA FEW020CB BKN030 BECMG 1112/1114 10006KT BECMG 1115/1118 SCT030 BKN100 PROB30 TEMPO 1200/1204 -TSRA FEW020CB BKN030

超过4000个机场的气象观测和天气预报(METAR&TAF报告)。

可查询的气象台以黄色和红色小点在地图上表示。

将鼠标移到小点上方,可查看气象台名称。

然后点击查看天气观测和预报。

如需切换地图:点击带黑十字的绿色按钮放大地图;点击带横线的绿色按钮缩小地图;或者点击绿色箭头查看邻近地区的地图。


METAR-TAF: